Time;durP1;ratioP1;P1;durP2;ratioP2;P2;SDS_P1;SDS_P2;PMS_P1;PMS_P2;Temp;Humidity;BMP_temperature;BMP_pressure;BME280_temperature;BME280_humidity;BME280_pressure;Samples;Min_cycle;Max_cycle;Signal;HPM_P1;HPM_P2
2023/10/19 00:01:27;;;;;;;22.62;12.15;;;;;;;12.02;45.94;100191.95;1667374;84;21893;-83
2023/10/19 00:04:37;;;;;;;27.45;11.40;;;;;;;12.16;45.59;100194.89;1667709;86;21841;-83
2023/10/19 00:07:44;;;;;;;21.17;11.55;;;;;;;12.08;46.13;100193.09;1666767;84;21340;-81
2023/10/19 00:11:10;;;;;;;21.60;11.00;;;;;;;12.35;45.74;100188.83;1666797;84;21352;-82
2023/10/19 00:14:18;;;;;;;18.02;11.83;;;;;;;12.40;45.70;100177.28;1668037;86;21852;-80
2023/10/19 00:17:26;;;;;;;23.57;11.05;;;;;;;12.21;46.09;100172.72;1668000;84;21300;-81
2023/10/19 00:21:11;;;;;;;18.73;11.55;;;;;;;12.08;46.70;100173.89;1667835;86;21340;-82
2023/10/19 00:23:39;;;;;;;20.37;11.03;;;;;;;12.63;45.89;100179.89;1667110;86;21882;-81
2023/10/19 00:26:48;;;;;;;21.12;11.65;;;;;;;12.22;46.69;100179.89;1667799;84;21316;-82
2023/10/19 00:29:55;;;;;;;16.07;10.80;;;;;;;12.27;46.86;100181.54;1668255;85;21300;-82
2023/10/19 00:33:03;;;;;;;18.87;11.85;;;;;;;12.21;47.13;100180.09;1674254;85;21276;-82
2023/10/19 00:36:08;;;;;;;15.20;10.30;;;;;;;12.37;47.07;100170.80;1674311;84;21322;-82
2023/10/19 00:39:21;;;;;;;20.35;10.25;;;;;;;12.22;47.49;100172.19;1674955;85;21289;-82
2023/10/19 00:42:29;;;;;;;19.40;11.12;;;;;;;12.35;47.41;100166.04;1674879;84;21857;-80
2023/10/19 00:45:34;;;;;;;19.10;11.97;;;;;;;12.29;47.63;100170.41;1674456;84;21350;-81
2023/10/19 00:48:40;;;;;;;18.00;10.93;;;;;;;12.66;47.24;100167.17;1674639;85;21300;-82
2023/10/19 00:51:54;;;;;;;16.45;10.20;;;;;;;12.75;47.20;100160.49;1673901;84;21323;-80
2023/10/19 00:54:58;;;;;;;17.45;10.00;;;;;;;12.64;47.22;100171.98;1675040;85;21339;-80
2023/10/19 00:58:09;;;;;;;20.00;10.63;;;;;;;12.82;46.89;100163.33;1674917;85;21311;-80
2023/10/19 01:01:14;;;;;;;18.00;9.85;;;;;;;12.90;46.51;100176.94;1674771;84;21319;-80
2023/10/19 01:04:25;;;;;;;18.60;11.03;;;;;;;13.04;46.25;100177.41;1673520;85;21288;-82
2023/10/19 01:07:34;;;;;;;17.20;9.80;;;;;;;13.02;46.40;100173.46;1673655;84;21388;-80
2023/10/19 01:10:39;;;;;;;14.83;10.03;;;;;;;13.24;46.15;100177.62;1674274;84;21597;-82
2023/10/19 01:13:47;;;;;;;16.73;9.93;;;;;;;13.22;46.21;100163.22;1678844;85;22206;-82
2023/10/19 01:16:56;;;;;;;19.60;10.15;;;;;;;13.43;45.84;100155.50;1651951;85;21340;-81
2023/10/19 01:20:00;;;;;;;16.40;9.60;;;;;;;13.52;45.55;100146.91;1680569;85;21324;-81
2023/10/19 01:23:22;;;;;;;16.07;9.70;;;;;;;13.11;46.24;100154.12;1680605;85;21667;-82
2023/10/19 01:26:27;;;;;;;19.85;9.50;;;;;;;13.03;46.39;100162.83;1657614;85;21299;-82
2023/10/19 01:29:34;;;;;;;21.20;10.30;;;;;;;13.10;46.43;100164.78;1680638;85;21315;-81
2023/10/19 01:32:42;;;;;;;17.00;9.68;;;;;;;13.16;46.39;100155.75;1676305;84;21342;-83
2023/10/19 01:39:12;;;;;;;25.95;10.30;;;;;;;13.25;46.19;100161.47;1668610;86;21303;-82
2023/10/19 01:42:12;;;;;;;16.35;8.85;;;;;;;13.25;46.26;100175.20;1667499;84;21190;-80
2023/10/19 01:45:05;;;;;;;19.65;10.38;;;;;;;13.68;45.67;100169.64;1668517;85;21292;-80
2023/10/19 01:48:12;;;;;;;24.05;7.62;;;;;;;13.48;45.80;100166.21;1668581;85;21864;-80
2023/10/19 01:51:20;;;;;;;20.48;9.13;;;;;;;13.30;46.11;100167.21;1668295;84;21835;-82
2023/10/19 01:54:26;;;;;;;16.80;9.75;;;;;;;13.11;46.36;100162.36;1668859;86;21294;-80
2023/10/19 01:57:31;;;;;;;18.27;9.68;;;;;;;12.88;46.72;100156.52;1668819;84;21169;-82
2023/10/19 02:00:43;;;;;;;18.00;9.15;;;;;;;12.78;46.92;100161.48;1668733;84;21849;-80
2023/10/19 02:03:44;;;;;;;23.00;10.58;;;;;;;12.70;47.33;100160.23;1676962;85;21343;-80
2023/10/19 02:06:52;;;;;;;14.25;9.33;;;;;;;12.95;47.15;100162.10;1678980;84;22262;-82
2023/10/19 02:09:57;;;;;;;16.55;9.65;;;;;;;13.13;46.82;100158.38;1679787;85;21314;-82
2023/10/19 02:13:06;;;;;;;18.05;9.50;;;;;;;13.07;46.90;100163.79;1666382;81;21552;-82
2023/10/19 02:16:11;;;;;;;17.70;10.03;;;;;;;13.48;46.75;100159.34;1664038;85;21328;-82
2023/10/19 02:19:19;;;;;;;14.78;9.20;;;;;;;13.08;47.18;100156.75;1664083;86;21292;-82
2023/10/19 02:22:25;;;;;;;18.98;10.25;;;;;;;13.13;47.24;100154.79;1662816;85;21271;-79
2023/10/19 02:25:36;;;;;;;15.95;9.53;;;;;;;13.03;47.38;100155.97;1664371;86;21300;-82
2023/10/19 02:28:43;;;;;;;18.52;9.70;;;;;;;13.07;47.07;100157.77;1665468;85;21284;-81
2023/10/19 02:31:50;;;;;;;19.25;10.05;;;;;;;13.17;46.84;100156.06;1663431;85;21347;-81
2023/10/19 02:34:57;;;;;;;15.63;9.23;;;;;;;13.28;46.84;100162.45;1664299;86;21169;-81
2023/10/19 02:38:02;;;;;;;16.50;9.93;;;;;;;13.19;47.06;100153.47;1664313;86;21327;-81
2023/10/19 02:41:09;;;;;;;19.80;10.03;;;;;;;13.28;46.85;100161.92;1664196;85;21323;-80
2023/10/19 02:47:23;;;;;;;14.35;9.73;;;;;;;12.93;47.83;100162.80;1664167;85;21334;-81
2023/10/19 02:50:29;;;;;;;14.95;9.45;;;;;;;12.83;48.14;100152.14;1668120;86;21327;-81
2023/10/19 02:53:34;;;;;;;18.02;9.90;;;;;;;12.94;48.07;100157.14;1669162;86;21354;-81
2023/10/19 02:56:40;;;;;;;14.98;8.65;;;;;;;13.36;47.55;100155.45;1669102;84;21336;-81
2023/10/19 02:59:47;;;;;;;21.40;8.80;;;;;;;13.59;47.30;100153.82;1668883;86;21842;-80
2023/10/19 03:02:55;;;;;;;15.88;9.43;;;;;;;13.48;47.51;100144.77;1665928;85;21343;-82
2023/10/19 03:06:03;;;;;;;15.75;9.03;;;;;;;13.66;47.18;100147.02;1668968;84;21311;-82
2023/10/19 03:09:15;;;;;;;15.05;9.48;;;;;;;13.59;47.13;100151.07;1668838;86;21284;-80
2023/10/19 03:12:18;;;;;;;14.30;9.20;;;;;;;13.67;46.94;100143.21;1681891;84;21730;-82
2023/10/19 03:15:24;;;;;;;19.90;9.50;;;;;;;13.62;46.93;100141.59;1668224;85;21304;-82
2023/10/19 03:18:30;;;;;;;13.60;9.45;;;;;;;13.49;46.98;100143.70;1671884;85;21292;-82
2023/10/19 03:21:42;;;;;;;15.45;9.05;;;;;;;13.35;47.28;100148.77;1671096;84;21339;-81
2023/10/19 03:24:47;;;;;;;13.13;9.38;;;;;;;13.36;47.08;100138.98;1671921;86;21331;-81
2023/10/19 03:27:50;;;;;;;18.42;9.38;;;;;;;13.25;47.20;100144.98;1672144;84;21348;-80
2023/10/19 03:30:55;;;;;;;16.10;10.03;;;;;;;13.22;47.24;100143.99;1683266;83;21596;-82
2023/10/19 03:34:04;;;;;;;19.57;9.88;;;;;;;13.16;47.12;100140.64;1693648;84;21285;-81
2023/10/19 03:37:12;;;;;;;15.70;9.05;;;;;;;13.22;46.94;100142.13;1693790;83;21316;-80
2023/10/19 03:40:10;;;;;;;17.77;8.85;;;;;;;12.76;47.73;100148.49;1693880;84;21265;-84
2023/10/19 03:43:18;;;;;;;13.53;8.98;;;;;;;12.64;47.93;100145.92;1693814;84;21308;-82
2023/10/19 03:46:28;;;;;;;14.23;9.43;;;;;;;12.76;47.65;100140.27;1678196;84;21348;-81
2023/10/19 03:49:36;;;;;;;13.20;8.93;;;;;;;12.75;47.45;100152.26;1670560;86;21359;-79
2023/10/19 03:52:39;;;;;;;13.88;9.10;;;;;;;12.71;47.70;100144.11;1664354;85;21311;-80
2023/10/19 03:55:38;;;;;;;14.00;9.50;;;;;;;12.85;47.26;100140.99;1671803;84;21347;-82
2023/10/19 03:58:47;;;;;;;16.35;10.08;;;;;;;12.70;47.63;100144.64;1674334;85;21327;-82
2023/10/19 04:01:52;;;;;;;19.95;9.78;;;;;;;12.69;47.57;100147.55;1674356;84;21895;-80
2023/10/19 04:05:01;;;;;;;20.48;10.08;;;;;;;12.71;47.38;100150.45;1674267;85;21316;-81
2023/10/19 04:08:20;;;;;;;22.98;11.15;;;;;;;12.68;47.49;100154.09;1671750;86;21320;-80
2023/10/19 04:11:26;;;;;;;17.42;10.03;;;;;;;12.60;47.69;100155.58;1684421;84;21322;-82
2023/10/19 04:14:31;;;;;;;16.40;9.83;;;;;;;12.68;47.53;100158.21;1675851;84;21699;-83
2023/10/19 04:17:36;;;;;;;19.12;10.38;;;;;;;12.41;48.25;100159.25;1669986;84;21189;-81
2023/10/19 04:20:55;;;;;;;14.40;8.55;;;;;;;12.58;47.96;100170.02;1670106;84;21327;-80
2023/10/19 04:23:50;;;;;;;21.70;10.68;;;;;;;12.58;47.92;100170.02;1664779;86;21347;-80
2023/10/19 04:26:59;;;;;;;16.12;10.13;;;;;;;12.63;47.77;100171.14;1663885;85;21869;-82
2023/10/19 04:30:04;;;;;;;20.02;10.08;;;;;;;12.57;48.02;100169.70;1664556;86;21884;-82
2023/10/19 04:33:10;;;;;;;14.07;9.48;;;;;;;12.52;48.09;100169.75;1664748;86;21840;-81
2023/10/19 04:36:16;;;;;;;18.90;9.85;;;;;;;12.76;47.82;100175.41;1663725;85;21735;-83
2023/10/19 04:39:21;;;;;;;17.62;10.75;;;;;;;12.73;48.00;100172.20;1664833;86;21295;-82
2023/10/19 04:42:27;;;;;;;19.42;8.90;;;;;;;12.82;48.00;100172.94;1664913;84;21331;-83
2023/10/19 04:45:33;;;;;;;18.95;10.32;;;;;;;12.75;48.24;100176.47;1667996;84;21296;-81
2023/10/19 04:48:39;;;;;;;17.35;8.78;;;;;;;12.89;48.26;100173.34;1667162;86;21269;-81
2023/10/19 04:51:44;;;;;;;19.30;10.03;;;;;;;12.87;48.43;100174.05;1664293;85;21989;-83
2023/10/19 04:54:49;;;;;;;20.12;9.98;;;;;;;13.00;48.48;100179.68;1664516;86;21909;-83
2023/10/19 04:57:54;;;;;;;18.80;9.85;;;;;;;13.27;48.21;100184.11;1664475;84;21959;-81
2023/10/19 05:01:00;;;;;;;17.05;9.80;;;;;;;13.13;48.94;100176.76;1664359;85;21315;-82
2023/10/19 05:04:06;;;;;;;22.85;9.88;;;;;;;13.11;49.20;100181.58;1663685;86;21367;-82
2023/10/19 05:07:18;;;;;;;17.40;9.33;;;;;;;13.02;49.52;100185.81;1663652;85;21619;-82
2023/10/19 05:10:21;;;;;;;16.93;9.88;;;;;;;13.36;49.08;100191.66;1665143;86;21968;-81
2023/10/19 05:13:28;;;;;;;15.80;9.05;;;;;;;13.69;48.65;100196.06;1635851;86;21972;-81
2023/10/19 05:16:34;;;;;;;23.55;9.05;;;;;;;13.61;48.97;100187.99;1704496;84;21845;-81
2023/10/19 05:19:41;;;;;;;15.60;8.70;;;;;;;13.76;48.88;100181.87;1698471;84;21900;-82
2023/10/19 05:22:48;;;;;;;28.05;9.55;;;;;;;13.73;49.08;100184.48;1676745;84;21317;-82
2023/10/19 05:25:54;;;;;;;18.07;9.55;;;;;;;14.16;48.50;100178.87;1690965;83;21346;-84
2023/10/19 05:29:00;;;;;;;15.32;9.18;;;;;;;13.93;49.13;100183.80;1697993;84;21825;-82
2023/10/19 05:32:06;;;;;;;22.82;10.08;;;;;;;14.03;49.29;100176.88;1687218;83;21291;-82
2023/10/19 05:35:18;;;;;;;14.10;8.63;;;;;;;14.29;48.86;100183.56;1700381;83;21311;-83
2023/10/19 05:38:25;;;;;;;13.72;8.68;;;;;;;14.53;48.54;100180.33;1646321;85;21947;-84
2023/10/19 05:41:31;;;;;;;16.67;9.75;;;;;;;14.44;48.86;100187.02;1642787;86;21905;-82
2023/10/19 05:44:37;;;;;;;17.42;9.15;;;;;;;14.52;48.84;100195.14;1637759;87;21392;-81
2023/10/19 05:47:46;;;;;;;17.80;9.08;;;;;;;14.70;48.68;100191.84;1685529;83;21322;-83
2023/10/19 05:50:52;;;;;;;;;;;;;;;15.02;48.11;100184.74;1692896;83;21764;-82
2023/10/19 05:54:01;;;;;;;18.02;10.48;;;;;;;14.93;48.58;100189.27;1691635;82;20520;-82
2023/10/19 05:57:08;;;;;;;14.00;9.23;;;;;;;15.24;48.12;100193.70;1685328;84;21299;-82
2023/10/19 06:00:19;;;;;;;17.10;10.45;;;;;;;15.24;48.20;100196.45;1695329;83;21402;-83
2023/10/19 06:03:24;;;;;;;19.27;9.05;;;;;;;15.27;48.26;100202.90;1673671;84;21687;-83
2023/10/19 06:06:30;;;;;;;23.57;9.80;;;;;;;15.51;48.08;100201.44;1693520;83;21316;-83
2023/10/19 06:09:35;;;;;;;15.08;9.15;;;;;;;15.46;48.14;100203.98;1679304;84;21268;-85
2023/10/19 06:12:41;;;;;;;13.68;8.00;;;;;;;15.85;47.89;100202.31;1693072;83;21280;-84
2023/10/19 06:15:48;;;;;;;20.85;8.83;;;;;;;16.02;47.51;100209.09;1684214;83;21325;-83
2023/10/19 06:18:53;;;;;;;12.35;7.22;;;;;;;16.41;46.70;100208.68;1684911;83;21940;-83
2023/10/19 06:22:00;;;;;;;13.30;8.43;;;;;;;16.40;46.99;100211.13;1685961;84;21367;-81
2023/10/19 06:25:06;;;;;;;17.32;9.15;;;;;;;16.72;46.57;100212.12;1693568;84;21856;-81
2023/10/19 06:28:12;;;;;;;16.65;8.03;;;;;;;17.03;46.01;100214.11;1696560;84;22158;-81
2023/10/19 06:31:19;;;;;;;19.10;8.98;;;;;;;16.65;46.87;100211.78;1681710;84;21860;-81
2023/10/19 06:34:27;;;;;;;16.85;9.33;;;;;;;17.06;46.62;100218.33;1691592;82;21904;-81
2023/10/19 06:37:34;;;;;;;17.57;8.70;;;;;;;17.47;45.39;100217.86;1668671;84;21295;-80
2023/10/19 06:40:42;;;;;;;15.78;9.28;;;;;;;17.40;45.49;100215.66;1685047;83;21616;-80
2023/10/19 06:43:48;;;;;;;12.73;7.87;;;;;;;17.48;45.51;100212.64;1638707;86;21925;-81
2023/10/19 06:46:55;;;;;;;17.75;7.97;;;;;;;17.80;45.04;100220.39;1629818;87;21327;-82
2023/10/19 06:50:04;;;;;;;14.38;8.35;;;;;;;17.55;45.44;100212.57;1634493;87;21311;-81
2023/10/19 06:53:11;;;;;;;15.98;8.93;;;;;;;17.99;44.78;100213.53;1692945;83;21331;-80
2023/10/19 06:56:18;;;;;;;15.08;8.40;;;;;;;18.02;44.70;100209.78;1697056;83;21304;-80
2023/10/19 06:59:24;;;;;;;12.88;8.10;;;;;;;18.25;44.48;100211.86;1656839;86;21287;-80
2023/10/19 07:02:29;;;;;;;12.05;8.38;;;;;;;18.25;44.54;100202.72;1641436;85;21656;-81
2023/10/19 07:05:34;;;;;;;13.15;7.10;;;;;;;18.17;45.03;100208.03;1695456;83;21324;-81
2023/10/19 07:08:39;;;;;;;13.98;8.20;;;;;;;18.34;44.89;100211.88;1697043;84;21264;-81
2023/10/19 07:11:45;;;;;;;14.93;7.80;;;;;;;18.32;44.96;100209.05;1684246;83;21300;-81
2023/10/19 07:14:51;;;;;;;14.80;7.22;;;;;;;18.42;44.58;100216.82;1676268;84;22305;-81
2023/10/19 07:17:58;;;;;;;14.33;7.72;;;;;;;18.67;44.33;100214.80;1693288;83;21311;-81
2023/10/19 07:21:03;;;;;;;11.35;7.50;;;;;;;18.56;44.38;100210.05;1683678;83;21299;-81
2023/10/19 07:24:11;;;;;;;11.80;6.70;;;;;;;19.03;43.98;100213.95;1696393;83;21272;-81
2023/10/19 07:27:22;;;;;;;10.78;6.25;;;;;;;19.06;43.85;100217.66;1686733;83;21299;-81
2023/10/19 07:30:30;;;;;;;11.83;7.47;;;;;;;19.02;43.71;100209.50;1690490;83;21362;-81
2023/10/19 07:33:42;;;;;;;16.30;6.78;;;;;;;19.69;42.71;100216.31;1689469;83;21663;-81
2023/10/19 07:36:46;;;;;;;13.30;7.55;;;;;;;19.45;43.00;100206.22;1693779;83;21280;-81
2023/10/19 07:39:56;;;;;;;18.82;8.75;;;;;;;19.69;42.77;100206.59;1690506;84;21270;-81
2023/10/19 07:43:03;;;;;;;21.55;9.10;;;;;;;19.73;42.82;100209.75;1690870;83;21894;-81
2023/10/19 07:46:09;;;;;;;18.10;8.43;;;;;;;19.70;42.50;100209.67;1685290;83;21288;-81
2023/10/19 07:49:15;;;;;;;29.40;8.20;;;;;;;19.99;42.63;100207.89;1682475;83;21283;-81
2023/10/19 07:52:20;;;;;;;15.93;7.42;;;;;;;20.09;42.29;100206.77;1692816;83;21300;-81
2023/10/19 07:55:26;;;;;;;16.52;6.78;;;;;;;20.06;42.23;100205.85;1692094;83;21285;-81
2023/10/19 07:58:33;;;;;;;13.40;7.45;;;;;;;19.88;42.57;100205.95;1696093;83;21932;-81
2023/10/19 08:01:40;;;;;;;14.28;7.40;;;;;;;20.16;41.98;100203.31;1686818;83;21286;-81
2023/10/19 08:04:47;;;;;;;12.90;6.58;;;;;;;20.31;41.73;100206.98;1691528;82;21683;-81
2023/10/19 08:07:57;;;;;;;12.15;6.70;;;;;;;20.68;41.10;100206.17;1692413;83;21303;-82
2023/10/19 08:11:03;;;;;;;15.48;6.42;;;;;;;20.59;41.40;100206.25;1693026;83;21313;-81
2023/10/19 08:14:09;;;;;;;12.13;5.95;;;;;;;20.99;40.64;100209.59;1689571;83;21338;-81
2023/10/19 08:17:16;;;;;;;17.40;5.53;;;;;;;21.12;40.40;100208.44;1686043;83;21911;-80
2023/10/19 08:20:30;;;;;;;10.35;6.37;;;;;;;20.84;40.88;100207.88;1688351;83;21903;-81
2023/10/19 08:23:31;;;;;;;8.40;5.75;;;;;;;20.84;40.49;100205.97;1688275;83;21831;-82
2023/10/19 08:26:37;;;;;;;11.55;6.40;;;;;;;20.92;40.46;100221.39;1693945;83;21283;-82
2023/10/19 08:29:43;;;;;;;22.77;8.45;;;;;;;20.78;41.01;100216.66;1686200;83;21631;-84
2023/10/19 08:32:50;;;;;;;17.07;8.33;;;;;;;20.92;40.99;100208.33;1693023;83;21806;-83
2023/10/19 08:35:56;;;;;;;12.47;6.58;;;;;;;21.00;40.88;100214.06;1696435;82;21295;-82
2023/10/19 08:39:05;;;;;;;12.47;6.60;;;;;;;21.17;40.64;100208.53;1697797;83;21276;-82
2023/10/19 08:42:13;;;;;;;11.75;7.03;;;;;;;21.08;40.91;100203.11;1689087;83;22194;-83
2023/10/19 08:45:18;;;;;;;9.80;6.20;;;;;;;21.09;40.71;100195.89;1690693;83;21299;-81
2023/10/19 08:48:25;;;;;;;15.80;6.58;;;;;;;21.05;40.96;100198.87;1693092;83;21335;-81
2023/10/19 08:51:31;;;;;;;13.13;6.33;;;;;;;21.29;40.54;100203.78;1687904;84;21686;-81
2023/10/19 08:54:36;;;;;;;11.35;6.12;;;;;;;21.39;40.34;100203.16;1693133;83;21317;-81
2023/10/19 08:57:42;;;;;;;7.92;5.17;;;;;;;21.87;39.88;100206.77;1687745;83;21303;-81
2023/10/19 09:01:01;;;;;;;8.38;4.60;;;;;;;20.53;41.92;100193.89;1692548;82;21916;-80
2023/10/19 09:04:05;;;;;;;10.35;5.78;;;;;;;20.66;41.75;100193.63;1692483;83;21331;-81
2023/10/19 09:07:11;;;;;;;12.25;6.03;;;;;;;21.37;40.46;100197.01;1691968;82;21315;-81
2023/10/19 09:10:19;;;;;;;10.13;6.03;;;;;;;21.42;40.40;100194.31;1690035;82;22487;-80
2023/10/19 09:13:25;;;;;;;10.08;5.00;;;;;;;21.69;40.04;100186.17;1695607;83;21259;-81
2023/10/19 09:16:33;;;;;;;9.45;4.85;;;;;;;21.37;40.10;100187.27;1693268;83;21311;-82
2023/10/19 09:19:53;;;;;;;8.75;4.25;;;;;;;21.82;40.11;100180.80;1688458;83;21294;-81
2023/10/19 09:23:02;;;;;;;9.45;4.67;;;;;;;22.04;39.26;100173.36;1684348;83;21779;-82
2023/10/19 09:26:08;;;;;;;6.72;4.15;;;;;;;22.10;39.26;100170.09;1686729;83;21288;-81
2023/10/19 09:29:13;;;;;;;7.20;4.58;;;;;;;21.68;40.05;100164.42;1687192;84;21264;-81
2023/10/19 09:32:19;;;;;;;10.58;4.70;;;;;;;21.44;40.25;100161.51;1671775;83;21289;-80
2023/10/19 09:35:27;;;;;;;9.50;4.10;;;;;;;21.56;40.69;100159.51;1683426;84;21272;-80
2023/10/19 09:38:33;;;;;;;7.08;3.75;;;;;;;22.23;39.87;100153.61;1686225;83;21292;-80
2023/10/19 09:41:38;;;;;;;7.78;4.00;;;;;;;21.74;40.45;100157.55;1679571;84;21309;-82
2023/10/19 09:44:38;;;;;;;6.58;3.70;;;;;;;21.99;40.24;100157.12;1678982;84;21309;-82
2023/10/19 09:47:45;;;;;;;8.08;4.65;;;;;;;22.31;39.50;100144.81;1696762;82;21315;-81
2023/10/19 09:50:55;;;;;;;8.98;4.28;;;;;;;21.94;40.05;100139.80;1699545;83;21307;-82
2023/10/19 09:54:27;;;;;;;13.77;4.60;;;;;;;22.31;39.77;100131.73;1695776;83;21272;-81
2023/10/19 09:57:49;;;;;;;8.85;3.90;;;;;;;22.19;39.62;100130.44;1691431;83;21320;-81
2023/10/19 10:00:57;;;;;;;6.85;3.90;;;;;;;22.29;39.48;100131.67;1673565;83;21363;-81
2023/10/19 10:04:06;;;;;;;7.15;3.50;;;;;;;22.23;39.76;100121.58;1695738;83;21342;-80
2023/10/19 10:07:13;;;;;;;6.25;3.20;;;;;;;22.43;38.91;100114.87;1690689;83;21927;-82
2023/10/19 10:10:23;;;;;;;10.13;3.35;;;;;;;22.44;38.83;100114.63;1677672;84;21300;-80
2023/10/19 10:13:37;;;;;;;10.80;4.05;;;;;;;22.41;38.98;100111.52;1678846;83;21283;-82
2023/10/19 10:16:44;;;;;;;8.68;3.37;;;;;;;22.47;38.81;100110.47;1675027;83;21713;-82
2023/10/19 10:19:49;;;;;;;4.95;3.45;;;;;;;22.17;39.35;100106.74;1672038;83;21947;-82
2023/10/19 10:23:21;;;;;;;9.68;4.05;;;;;;;22.51;38.92;100113.03;1680525;83;21891;-81
2023/10/19 10:26:25;;;;;;;6.87;3.10;;;;;;;22.40;38.61;100102.87;1675686;83;21303;-82
2023/10/19 10:29:31;;;;;;;10.20;3.55;;;;;;;22.15;39.17;100093.05;1649240;85;21899;-82
2023/10/19 10:33:00;;;;;;;5.30;3.02;;;;;;;22.36;38.93;100094.73;1688517;83;21595;-82
2023/10/19 10:36:02;;;;;;;7.97;3.20;;;;;;;22.19;38.50;100094.22;1701666;82;21299;-81
2023/10/19 10:39:15;;;;;;;6.30;2.90;;;;;;;22.49;38.32;100084.59;1688227;84;21311;-81
2023/10/19 10:42:18;;;;;;;10.90;3.33;;;;;;;22.69;37.90;100085.38;1692719;82;21328;-82
2023/10/19 10:45:27;;;;;;;5.78;3.15;;;;;;;22.42;37.94;100081.14;1701542;83;21913;-82
2023/10/19 10:48:32;;;;;;;7.92;3.72;;;;;;;22.69;36.40;100095.13;1694399;83;21893;-82
2023/10/19 10:51:37;;;;;;;7.22;3.30;;;;;;;22.62;36.64;100089.73;1698238;82;21346;-82
2023/10/19 10:54:45;;;;;;;7.62;3.42;;;;;;;22.49;37.15;100080.41;1680913;83;21964;-81
2023/10/19 10:57:52;;;;;;;8.48;3.20;;;;;;;22.67;36.91;100081.44;1675661;83;21290;-82
2023/10/19 11:00:58;;;;;;;6.47;3.47;;;;;;;22.34;37.36;100087.16;1698297;82;21358;-82
2023/10/19 11:04:17;;;;;;;5.25;3.00;;;;;;;22.67;36.78;100074.46;1684045;83;21294;-82
2023/10/19 11:07:29;;;;;;;5.78;3.02;;;;;;;22.74;37.02;100077.06;1679072;83;21898;-82
2023/10/19 11:10:42;;;;;;;6.42;2.92;;;;;;;23.09;36.30;100071.02;1694382;84;21685;-81
2023/10/19 11:13:43;;;;;;;8.43;2.70;;;;;;;23.06;35.66;100079.10;1696406;84;21289;-83
2023/10/19 11:16:49;;;;;;;15.72;2.90;;;;;;;22.98;36.05;100076.23;1693835;83;21285;-81
2023/10/19 11:19:56;;;;;;;6.47;2.70;;;;;;;22.93;35.75;100072.83;1693716;84;21331;-82
2023/10/19 11:23:02;;;;;;;9.20;2.65;;;;;;;23.10;35.52;100073.26;1667775;85;21713;-83
2023/10/19 11:26:08;;;;;;;4.40;2.40;;;;;;;23.05;35.90;100061.50;1693239;83;21916;-83
2023/10/19 11:29:13;;;;;;;3.92;2.30;;;;;;;23.22;35.66;100069.75;1688464;83;21276;-82
2023/10/19 11:32:19;;;;;;;7.25;2.62;;;;;;;23.12;35.48;100065.48;1694348;83;21296;-81
2023/10/19 11:35:25;;;;;;;6.08;2.52;;;;;;;23.23;35.36;100058.04;1681822;84;21319;-81
2023/10/19 11:38:30;;;;;;;6.00;2.27;;;;;;;23.21;35.61;100056.92;1686059;84;21280;-82
2023/10/19 11:41:36;;;;;;;11.88;2.67;;;;;;;23.29;35.85;100052.78;1702035;83;21307;-80
2023/10/19 11:44:43;;;;;;;7.22;3.15;;;;;;;23.62;35.13;100058.09;1697173;84;21293;-81
2023/10/19 11:47:50;;;;;;;8.10;2.58;;;;;;;23.67;35.53;100053.13;1659678;84;21418;-81
2023/10/19 11:50:56;;;;;;;6.75;2.58;;;;;;;23.80;34.95;100050.39;1694048;83;21359;-82
2023/10/19 11:54:01;;;;;;;5.53;2.58;;;;;;;23.72;35.05;100048.97;1696957;83;21296;-82
2023/10/19 11:57:07;;;;;;;10.50;2.37;;;;;;;23.81;34.85;100050.70;1695696;83;21884;-81
2023/10/19 12:00:24;;;;;;;4.25;2.42;;;;;;;23.56;35.42;100048.53;1696774;84;21324;-81
2023/10/19 12:03:30;;;;;;;7.90;2.50;;;;;;;23.62;35.43;100046.05;1662219;86;21284;-81
2023/10/19 12:06:36;;;;;;;4.78;2.20;;;;;;;23.79;34.95;100048.72;1662341;85;21568;-81
2023/10/19 12:09:44;;;;;;;6.00;2.37;;;;;;;23.98;34.79;100047.15;1616835;88;21363;-81
2023/10/19 12:12:51;;;;;;;5.95;2.22;;;;;;;23.81;34.90;100045.12;1657595;86;21304;-80
2023/10/19 12:15:58;;;;;;;6.35;2.20;;;;;;;23.55;35.56;100040.71;1663111;86;21378;-80
2023/10/19 12:19:05;;;;;;;9.55;2.47;;;;;;;23.60;35.19;100056.66;1643831;87;21322;-83
2023/10/19 12:22:13;;;;;;;5.62;2.02;;;;;;;23.39;35.28;100045.91;1688921;83;21306;-83
2023/10/19 12:25:19;;;;;;;5.05;2.27;;;;;;;23.54;35.40;100053.55;1698116;84;21296;-83
2023/10/19 12:28:27;;;;;;;5.67;2.37;;;;;;;23.39;35.72;100051.48;1697512;84;22318;-82
2023/10/19 12:31:27;;;;;;;7.22;2.33;;;;;;;23.31;35.98;100039.42;1697218;84;21849;-81
2023/10/19 12:34:19;;;;;;;5.15;2.33;;;;;;;23.32;35.75;100047.52;1688110;84;21869;-81
2023/10/19 12:37:25;;;;;;;5.95;2.30;;;;;;;23.35;36.05;100046.16;1697424;84;21304;-81
2023/10/19 12:40:34;;;;;;;4.67;2.10;;;;;;;23.41;36.01;100042.28;1696407;84;21311;-81
2023/10/19 12:43:39;;;;;;;5.42;1.90;;;;;;;23.34;35.72;100044.48;1698180;84;21307;-81
2023/10/19 12:46:46;;;;;;;5.20;2.58;;;;;;;23.19;35.77;100043.77;1677030;84;21398;-81
2023/10/19 12:49:52;;;;;;;5.92;2.30;;;;;;;23.10;36.07;100056.52;1673414;84;22034;-81
2023/10/19 12:52:58;;;;;;;6.00;2.05;;;;;;;22.84;36.23;100047.89;1673007;85;21327;-81
2023/10/19 12:56:03;;;;;;;4.92;2.37;;;;;;;22.73;36.60;100046.11;1669183;84;21699;-82
2023/10/19 12:59:11;;;;;;;7.55;2.22;;;;;;;22.96;36.42;100044.98;1664453;86;21327;-83
2023/10/19 13:02:20;;;;;;;6.75;2.55;;;;;;;22.84;36.42;100044.27;1663493;84;21920;-82
2023/10/19 13:05:27;;;;;;;6.85;2.67;;;;;;;23.00;36.52;100040.53;1669002;86;21316;-82
2023/10/19 13:08:33;;;;;;;6.35;2.75;;;;;;;23.14;36.50;100038.98;1669149;86;21324;-82
2023/10/19 13:11:38;;;;;;;9.40;2.80;;;;;;;22.88;36.82;100037.06;1668976;84;21303;-80
2023/10/19 13:14:45;;;;;;;4.90;2.40;;;;;;;22.88;36.83;100041.24;1673311;84;21948;-82
2023/10/19 13:17:52;;;;;;;5.87;2.25;;;;;;;22.79;36.95;100035.85;1663675;84;21814;-81
2023/10/19 13:21:01;;;;;;;10.30;2.45;;;;;;;22.62;37.04;100032.59;1666694;84;21331;-81
2023/10/19 13:24:07;;;;;;;5.25;2.42;;;;;;;22.49;37.11;100025.20;1668489;85;21331;-82
2023/10/19 13:27:13;;;;;;;11.68;2.20;;;;;;;22.37;37.43;100025.36;1670802;84;21323;-83
2023/10/19 13:30:20;;;;;;;5.00;2.58;;;;;;;22.17;37.63;100017.61;1671370;84;21340;-82
2023/10/19 13:33:26;;;;;;;9.78;2.90;;;;;;;22.03;37.93;100012.95;1687081;84;21311;-81
2023/10/19 13:36:33;;;;;;;4.65;2.58;;;;;;;22.14;37.63;100016.72;1696345;83;21332;-82
2023/10/19 13:39:40;;;;;;;11.63;3.10;;;;;;;22.31;37.66;100014.72;1696236;84;21340;-81
2023/10/19 13:42:47;;;;;;;7.55;3.30;;;;;;;22.08;38.04;100003.26;1696335;83;21319;-81
2023/10/19 13:45:54;;;;;;;5.87;2.62;;;;;;;22.08;38.12;100005.20;1666304;84;21390;-80
2023/10/19 13:49:03;;;;;;;5.80;2.37;;;;;;;22.22;38.15;100004.30;1664541;86;21309;-81
2023/10/19 13:52:08;;;;;;;7.80;2.30;;;;;;;22.35;37.97;100003.90;1663878;85;21320;-81
2023/10/19 13:55:18;;;;;;;8.35;3.33;;;;;;;22.26;38.14;99999.33;1665116;86;21695;-81
2023/10/19 13:58:23;;;;;;;4.58;1.92;;;;;;;22.15;38.47;99999.74;1667734;86;21356;-82
2023/10/19 14:01:28;;;;;;;4.30;2.42;;;;;;;22.09;38.52;99993.80;1668358;84;21346;-81
2023/10/19 14:04:35;;;;;;;8.88;2.83;;;;;;;21.93;38.74;99994.72;1668985;86;21849;-81
2023/10/19 14:07:41;;;;;;;7.03;2.55;;;;;;;22.24;38.33;99992.33;1667740;84;21931;-81
2023/10/19 14:10:48;;;;;;;7.10;2.70;;;;;;;22.16;38.51;99995.01;1668983;84;21596;-81
2023/10/19 14:13:54;;;;;;;4.80;2.60;;;;;;;22.37;38.33;99995.55;1669135;86;21340;-81
2023/10/19 14:17:00;;;;;;;16.02;2.62;;;;;;;22.03;38.80;99994.84;1668397;84;21342;-81
2023/10/19 14:20:12;;;;;;;6.65;2.95;;;;;;;21.88;38.88;99983.52;1669155;86;21351;-81
2023/10/19 14:23:17;;;;;;;9.20;3.33;;;;;;;21.66;39.24;99998.25;1659553;86;21368;-82
2023/10/19 14:26:23;;;;;;;8.28;2.80;;;;;;;21.52;39.55;99994.70;1681041;84;21912;-83
2023/10/19 14:29:29;;;;;;;8.75;2.83;;;;;;;21.76;39.20;99991.98;1682130;85;21315;-81